This is the latest recevied weather packets stored in our database for station/object DB0TGO-13. If no packets are shown the sender has not sent any weather packets the latest 10 day(s).
| Time | Temp. | Humidity | Pressure | Rain* | Wind** | Luminosity | Snow |
|---|---|---|---|---|---|---|---|
| 1777815902 | 27.22° C | 26% | 1005.9 hPa | - | - | - | - |
| 1777815002 | 27.22° C | 26% | 1005.9 hPa | - | - | - | - |
| 1777814103 | 27.22° C | 25% | 1006.2 hPa | - | - | - | - |
| 1777813202 | 27.22° C | 25% | 1006.2 hPa | - | - | - | - |
| 1777812302 | 27.22° C | 25% | 1006.4 hPa | - | - | - | - |
| 1777811403 | 27.22° C | 25% | 1006.4 hPa | - | - | - | - |
| 1777810502 | 26.67° C | 26% | 1006.6 hPa | - | - | - | - |
| 1777809602 | 26.67° C | 26% | 1006.6 hPa | - | - | - | - |
| 1777808703 | 26.67° C | 26% | 1006.9 hPa | - | - | - | - |
| 1777807802 | 26.67° C | 26% | 1006.9 hPa | - | - | - | - |
| 1777806902 | 26.67° C | 26% | 1007.2 hPa | - | - | - | - |
| 1777806003 | 26.67° C | 26% | 1007.2 hPa | - | - | - | - |
| 1777805102 | 26.11° C | 32% | 1007.4 hPa | - | - | - | - |
| 1777804202 | 26.11° C | 32% | 1007.4 hPa | - | - | - | - |
| 1777803303 | 24.44° C | 36% | 1007.6 hPa | - | - | - | - |
| 1777802402 | 24.44° C | 36% | 1007.6 hPa | - | - | - | - |
| 1777801502 | 23.33° C | 36% | 1007.7 hPa | - | - | - | - |
| 1777800603 | 23.33° C | 36% | 1007.7 hPa | - | - | - | - |
| 1777799702 | 22.22° C | 41% | 1007.8 hPa | - | - | - | - |
| 1777798802 | 22.22° C | 41% | 1007.8 hPa | - | - | - | - |
| 1777797902 | 20.56° C | 42% | 1008 hPa | - | - | - | - |
| 1777797003 | 20.56° C | 42% | 1008 hPa | - | - | - | - |
| 1777796102 | 20° C | 43% | 1008 hPa | - | - | - | - |
| 1777795203 | 20° C | 43% | 1008 hPa | - | - | - | - |
| 1777794302 | 18.33° C | 47% | 1008 hPa | - | - | - | - |
* Rain since midnight (hover to see other rain measurements)
** Current wind speed in m/s (hover to see current wind gust speed)